Terminal Aerodrome Forecast
Issued by NWS Topeka, KS

Home | Current Version | Previous Version | Text Only | Print | Product List | Glossary On
Versions: 1 2 3 4 5 6 7 8 9 10 11 12 13 14 15 16 17 18 19 20 21 22 23 24 25 26
919
FTUS43 KTOP 220003 AAA
TAFTOP
TAF AMD
KTOP 220003Z 2200/2224 11005KT P6SM VCSH OVC050
      TEMPO 2200/2204 -RA
     FM220600 04005KT 5SM BR VCSH OVC050
     FM221000 36007KT P6SM SCT100
     FM221500 35013KT P6SM SCT100=

USA.gov is the U.S. government's official web portal to all federal, state and local government web resources and services.